createdAt,value
2022-08-14T00:01:10.416Z,7.03
2022-08-14T00:03:40.635Z,8.45
2022-08-14T00:06:25.701Z,8.20
2022-08-14T00:08:59.289Z,8.57
2022-08-14T00:11:28.788Z,9.85
2022-08-14T00:13:59.295Z,7.25
2022-08-14T00:16:41.499Z,8.80
2022-08-14T00:19:19.474Z,6.88
2022-08-14T00:21:52.266Z,7.80
2022-08-14T00:24:28.268Z,7.85
2022-08-14T00:27:02.124Z,8.05
2022-08-14T00:29:39.951Z,7.75
2022-08-14T00:32:51.978Z,8.25
2022-08-14T00:34:56.406Z,8.77
2022-08-14T00:37:23.271Z,8.32
2022-08-14T00:39:51.141Z,9.40
2022-08-14T00:42:52.836Z,8.60
2022-08-14T00:45:11.373Z,7.50
2022-08-14T00:47:43.196Z,7.38
2022-08-14T00:50:17.649Z,7.97
2022-08-14T00:52:51.215Z,8.23
2022-08-14T00:55:19.926Z,10.85
2022-08-14T00:58:07.949Z,10.70
2022-08-14T01:00:37.266Z,10.25
2022-08-14T01:03:17.448Z,11.05
2022-08-14T01:05:51.692Z,11.02
2022-08-14T01:08:51.114Z,12.05
2022-08-14T01:11:08.132Z,11.55
2022-08-14T01:13:42.526Z,11.98
2022-08-14T01:16:14.926Z,12.95
2022-08-14T01:19:02.324Z,12.48
2022-08-14T01:21:47.110Z,13.80
2022-08-14T01:24:22.995Z,12.93
2022-08-14T01:27:00.176Z,12.70
2022-08-14T01:29:58.201Z,8.75
2022-08-14T01:32:23.325Z,8.43
2022-08-14T01:35:18.128Z,8.70
2022-08-14T01:37:56.531Z,10.30
2022-08-14T01:40:36.672Z,9.25
2022-08-14T01:43:14.693Z,11.20
2022-08-14T01:45:42.328Z,10.02
2022-08-14T01:48:13.756Z,8.98
2022-08-14T01:50:41.828Z,9.52
2022-08-14T01:53:09.521Z,14.88
2022-08-14T01:55:38.820Z,9.73
2022-08-14T01:58:19.870Z,9.20
2022-08-14T02:00:55.156Z,10.32
2022-08-14T02:03:30.812Z,15.05
2022-08-14T02:05:59.547Z,13.15
2022-08-14T02:08:34.784Z,18.43
2022-08-14T02:11:22.283Z,22.38
2022-08-14T02:14:10.085Z,17.95
2022-08-14T02:16:43.872Z,16.42
2022-08-14T02:19:15.709Z,16.70
2022-08-14T02:21:48.981Z,12.32
2022-08-14T02:24:39.466Z,13.75
2022-08-14T02:28:22.183Z,10.10
2022-08-14T02:29:59.190Z,9.35
2022-08-14T02:32:30.675Z,10.00
2022-08-14T02:35:10.155Z,13.88
2022-08-14T02:37:47.239Z,16.15
2022-08-14T02:40:15.605Z,12.43
2022-08-14T02:42:54.779Z,14.63
2022-08-14T02:45:32.934Z,12.88
2022-08-14T02:48:03.144Z,8.52
2022-08-14T02:50:29.735Z,9.25
2022-08-14T02:53:02.993Z,8.63
2022-08-14T02:55:30.986Z,7.38
2022-08-14T02:58:03.290Z,8.85
2022-08-14T03:00:33.000Z,7.50
2022-08-14T03:03:01.054Z,6.88
2022-08-14T03:05:33.135Z,7.53
2022-08-14T03:08:08.124Z,8.00
2022-08-14T03:10:34.767Z,8.70
2022-08-14T03:13:04.378Z,8.38
2022-08-14T03:15:33.148Z,7.20
2022-08-14T03:18:00.953Z,8.15
2022-08-14T03:20:29.257Z,7.75
2022-08-14T03:22:59.325Z,7.82
2022-08-14T03:25:26.959Z,8.73
2022-08-14T03:27:58.704Z,9.55
2022-08-14T03:30:39.014Z,9.20
2022-08-14T03:33:10.657Z,9.68
2022-08-14T03:35:40.339Z,9.32
2022-08-14T03:39:13.230Z,8.32
2022-08-14T03:41:17.156Z,9.98
2022-08-14T03:43:44.702Z,11.65
2022-08-14T03:46:52.139Z,8.77
2022-08-14T03:49:01.328Z,7.47
2022-08-14T03:51:29.894Z,10.20
2022-08-14T03:53:57.885Z,7.70
2022-08-14T03:56:26.606Z,8.77
2022-08-14T03:58:57.488Z,8.55
2022-08-14T04:01:29.314Z,8.40
2022-08-14T04:04:07.808Z,9.73
2022-08-14T04:06:45.232Z,11.55
2022-08-14T04:09:14.575Z,10.77
2022-08-14T04:11:43.874Z,13.30
2022-08-14T04:14:10.395Z,11.63
2022-08-14T04:16:48.066Z,12.82
2022-08-14T04:19:23.804Z,13.45
2022-08-14T04:22:03.266Z,14.40
2022-08-14T04:24:37.804Z,14.57
2022-08-14T04:27:10.377Z,19.02
2022-08-14T04:29:42.609Z,16.42
2022-08-14T04:33:10.254Z,13.75
2022-08-14T04:34:58.873Z,13.13
2022-08-14T04:37:45.480Z,15.57
2022-08-14T04:40:32.245Z,13.80
2022-08-14T04:43:18.104Z,11.10
2022-08-14T04:45:45.402Z,10.30
2022-08-14T04:48:39.460Z,12.63
2022-08-14T04:51:07.587Z,12.68
2022-08-14T04:53:43.258Z,19.73
2022-08-14T04:56:31.457Z,17.67
2022-08-14T04:59:10.679Z,16.50
2022-08-14T05:01:47.651Z,12.20
2022-08-14T05:04:20.173Z,19.48
2022-08-14T05:06:49.059Z,13.35
2022-08-14T05:09:16.231Z,9.70
2022-08-14T05:11:44.616Z,8.43
2022-08-14T05:14:17.326Z,11.77
2022-08-14T05:17:01.792Z,10.85
2022-08-14T05:19:29.549Z,10.30
2022-08-14T05:22:16.720Z,7.85
2022-08-14T05:24:48.771Z,11.00
2022-08-14T05:27:19.843Z,12.85
2022-08-14T05:29:49.054Z,9.05
2022-08-14T05:32:16.353Z,9.93
2022-08-14T05:34:45.786Z,14.02
2022-08-14T05:37:15.408Z,13.02
2022-08-14T05:39:43.008Z,14.43
2022-08-14T05:42:09.976Z,12.45
2022-08-14T05:44:48.129Z,8.20
2022-08-14T05:47:16.034Z,8.00
2022-08-14T05:49:43.701Z,9.60
2022-08-14T05:52:10.709Z,9.75
2022-08-14T05:54:44.514Z,7.78
2022-08-14T05:57:11.014Z,9.07
2022-08-14T05:59:39.892Z,11.02
2022-08-14T06:02:10.995Z,8.70
2022-08-14T06:04:39.378Z,10.13
2022-08-14T06:07:06.874Z,9.13
2022-08-14T06:09:36.025Z,8.68
2022-08-14T06:12:10.667Z,8.75
2022-08-14T06:14:39.303Z,10.40
2022-08-14T06:17:07.192Z,10.23
2022-08-14T06:19:33.743Z,10.68
2022-08-14T06:22:00.267Z,7.93
2022-08-14T06:24:30.457Z,11.23
2022-08-14T06:27:04.267Z,9.13
2022-08-14T06:29:34.695Z,9.90
2022-08-14T06:32:37.528Z,9.30
2022-08-14T06:35:03.291Z,8.45
2022-08-14T06:37:52.284Z,13.55
2022-08-14T06:40:28.421Z,9.80
2022-08-14T06:43:03.733Z,8.77
2022-08-14T06:45:35.148Z,11.10
2022-08-14T06:48:06.212Z,11.38
2022-08-14T06:50:39.685Z,7.80
2022-08-14T06:53:07.287Z,9.65
2022-08-14T06:55:34.419Z,11.43
2022-08-14T06:58:04.277Z,8.68
2022-08-14T07:00:32.637Z,12.15
2022-08-14T07:03:19.424Z,11.50
2022-08-14T07:05:55.402Z,6.85
2022-08-14T07:08:31.601Z,8.13
2022-08-14T07:11:03.909Z,7.38
2022-08-14T07:13:31.029Z,7.25
2022-08-14T07:15:59.198Z,8.40
2022-08-14T07:18:33.243Z,8.68
2022-08-14T07:21:01.478Z,9.55
2022-08-14T07:23:28.213Z,8.38
2022-08-14T07:26:00.151Z,7.40
2022-08-14T07:28:29.886Z,10.68
2022-08-14T07:31:04.835Z,6.72
2022-08-14T07:33:41.937Z,7.85
2022-08-14T07:36:27.204Z,7.45
2022-08-14T07:39:00.588Z,7.03
2022-08-14T07:41:33.671Z,8.90
2022-08-14T07:44:29.243Z,9.60
2022-08-14T07:46:50.212Z,7.10
2022-08-14T07:49:17.777Z,7.65
2022-08-14T07:51:45.306Z,7.65
2022-08-14T07:54:12.251Z,8.13
2022-08-14T07:56:44.482Z,7.18
2022-08-14T07:59:18.013Z,7.03
2022-08-14T08:01:51.338Z,7.82
2022-08-14T08:04:24.088Z,9.00
2022-08-14T08:06:52.385Z,6.07
2022-08-14T08:09:23.817Z,7.50
2022-08-14T08:11:54.587Z,7.07
2022-08-14T08:14:25.265Z,9.57
2022-08-14T08:16:53.958Z,7.85
2022-08-14T08:19:20.531Z,6.95
2022-08-14T08:21:48.014Z,8.02
2022-08-14T08:24:19.721Z,7.53
2022-08-14T08:26:50.380Z,7.38
2022-08-14T08:29:22.471Z,8.70
2022-08-14T08:31:55.452Z,9.68
2022-08-14T08:34:23.713Z,9.75
2022-08-14T08:36:51.540Z,7.90
2022-08-14T08:39:22.002Z,7.33
2022-08-14T08:41:53.374Z,8.73
2022-08-14T08:44:32.570Z,7.00
2022-08-14T08:47:05.426Z,7.32
2022-08-14T08:49:41.994Z,7.13
2022-08-14T08:52:15.199Z,6.63
2022-08-14T08:54:55.789Z,7.28
2022-08-14T08:57:22.369Z,6.60
2022-08-14T08:59:54.848Z,7.53
2022-08-14T09:02:22.684Z,8.05
2022-08-14T09:05:02.257Z,6.80
2022-08-14T09:07:28.943Z,8.10
2022-08-14T09:10:00.073Z,7.07
2022-08-14T09:12:33.459Z,6.85
2022-08-14T09:15:12.204Z,6.30
2022-08-14T09:20:11.596Z,7.50
2022-08-14T09:22:42.392Z,10.50
2022-08-14T09:25:15.362Z,8.20
2022-08-14T09:27:42.317Z,6.82
2022-08-14T09:30:30.661Z,6.95
2022-08-14T09:35:39.200Z,6.47
2022-08-14T09:38:25.819Z,7.47
2022-08-14T09:42:21.075Z,7.57
2022-08-14T09:44:27.546Z,11.38
2022-08-14T09:46:57.943Z,8.10
2022-08-14T09:49:39.969Z,7.82
2022-08-14T09:52:32.953Z,8.77
2022-08-14T09:54:59.376Z,7.03
2022-08-14T09:57:28.957Z,7.10
2022-08-14T09:59:55.890Z,9.27
2022-08-14T10:02:27.990Z,7.95
2022-08-14T10:05:10.030Z,8.98
2022-08-14T10:07:53.863Z,9.85
2022-08-14T10:10:39.497Z,10.27
2022-08-14T10:13:21.595Z,7.68
2022-08-14T10:15:51.343Z,8.88
2022-08-14T10:18:20.223Z,8.15
2022-08-14T10:20:58.269Z,7.15
2022-08-14T10:23:27.877Z,8.50
2022-08-14T10:26:06.588Z,7.35
2022-08-14T10:29:18.183Z,10.23
2022-08-14T10:31:44.519Z,8.38
2022-08-14T10:34:14.184Z,7.18
2022-08-14T10:36:47.510Z,7.88
2022-08-14T10:39:27.693Z,7.72
2022-08-14T10:42:18.336Z,7.68
2022-08-14T10:44:52.347Z,8.30
2022-08-14T10:47:41.287Z,7.32
2022-08-14T10:50:07.803Z,7.07
2022-08-14T10:52:42.407Z,7.78
2022-08-14T10:55:16.045Z,7.75
2022-08-14T10:57:53.670Z,9.90
2022-08-14T11:00:30.268Z,7.93
2022-08-14T11:03:02.872Z,9.38
2022-08-14T11:05:43.794Z,7.15
2022-08-14T11:08:12.928Z,9.00
2022-08-14T11:10:43.932Z,7.30
2022-08-14T11:13:16.391Z,7.22
2022-08-14T11:15:45.134Z,9.57
2022-08-14T11:18:20.467Z,10.20
2022-08-14T11:20:59.741Z,9.32
2022-08-14T11:23:38.479Z,8.07
2022-08-14T11:26:08.696Z,8.13
2022-08-14T11:28:48.144Z,8.55
2022-08-14T11:31:19.739Z,7.32
2022-08-14T11:33:58.254Z,8.40
2022-08-14T11:39:23.153Z,6.50
2022-08-14T11:42:55.541Z,6.78
2022-08-14T11:44:53.892Z,8.30
2022-08-14T11:47:26.902Z,8.50
2022-08-14T11:50:13.276Z,6.35
2022-08-14T11:52:40.571Z,6.63
2022-08-14T11:55:13.524Z,7.85
2022-08-14T11:57:41.850Z,6.43
2022-08-14T12:00:19.501Z,6.07
2022-08-14T12:03:03.331Z,9.83
2022-08-14T12:05:33.728Z,6.65
2022-08-14T12:08:11.899Z,6.35
2022-08-14T12:10:43.510Z,5.57
2022-08-14T12:13:19.110Z,5.07
2022-08-14T12:15:58.687Z,7.25
2022-08-14T12:18:33.003Z,5.18
2022-08-14T12:21:21.214Z,5.22
2022-08-14T12:24:08.412Z,6.95
2022-08-14T12:26:40.520Z,4.95
2022-08-14T12:29:16.222Z,4.57
2022-08-14T12:31:46.805Z,5.88
2022-08-14T12:34:20.028Z,4.78
2022-08-14T12:36:47.539Z,5.07
2022-08-14T12:39:23.757Z,5.70
2022-08-14T12:41:56.919Z,5.22
2022-08-14T12:44:38.452Z,5.13
2022-08-14T12:47:29.499Z,5.35
2022-08-14T12:49:57.490Z,6.32
2022-08-14T12:52:56.052Z,5.80
2022-08-14T12:56:18.825Z,5.40
2022-08-14T12:58:35.254Z,5.07
2022-08-14T13:01:23.097Z,6.90
2022-08-14T13:03:51.831Z,5.97
2022-08-14T13:06:20.353Z,5.35
2022-08-14T13:08:53.232Z,5.70
2022-08-14T13:11:23.739Z,5.18
2022-08-14T13:13:57.889Z,5.57
2022-08-14T13:16:37.977Z,5.97
2022-08-14T13:19:11.698Z,6.50
2022-08-14T13:22:05.105Z,5.32
2022-08-14T13:24:27.907Z,6.10
2022-08-14T13:26:58.256Z,5.30
2022-08-14T13:29:31.404Z,5.13
2022-08-14T13:31:58.486Z,5.13
2022-08-14T13:34:28.024Z,5.63
2022-08-14T13:36:59.264Z,4.93
2022-08-14T13:39:31.432Z,5.05
2022-08-14T13:42:13.389Z,5.50
2022-08-14T13:44:42.951Z,4.67
2022-08-14T13:47:10.923Z,5.40
2022-08-14T13:49:40.423Z,5.90
2022-08-14T13:52:51.338Z,5.05
2022-08-14T13:55:15.548Z,4.78
2022-08-14T13:57:49.418Z,4.82
2022-08-14T14:00:32.536Z,5.03
2022-08-14T14:03:00.082Z,6.53
2022-08-14T14:05:52.184Z,4.65
2022-08-14T14:11:02.353Z,5.45
2022-08-14T14:13:31.052Z,5.50
2022-08-14T14:16:02.760Z,5.60
2022-08-14T14:18:34.701Z,7.35
2022-08-14T14:21:02.704Z,4.60
2022-08-14T14:23:30.052Z,4.72
2022-08-14T14:25:57.684Z,6.05
2022-08-14T14:28:31.282Z,6.20
2022-08-14T14:31:01.325Z,5.05
2022-08-14T14:33:47.353Z,5.78
2022-08-14T14:36:21.429Z,5.45
2022-08-14T14:38:57.970Z,5.15
2022-08-14T14:41:38.487Z,5.03
2022-08-14T14:44:13.638Z,5.82
2022-08-14T14:46:49.452Z,5.32
2022-08-14T14:49:21.753Z,4.93
2022-08-14T14:51:51.543Z,6.30
2022-08-14T14:54:31.183Z,5.55
2022-08-14T14:57:00.156Z,5.60
2022-08-14T14:59:29.652Z,5.15
2022-08-14T15:02:08.210Z,5.35
2022-08-14T15:04:38.317Z,6.80
2022-08-14T15:07:06.527Z,5.40
2022-08-14T15:09:36.152Z,5.00
2022-08-14T15:12:16.149Z,4.15
2022-08-14T15:14:55.460Z,5.13
2022-08-14T15:17:24.933Z,4.63
2022-08-14T15:19:56.708Z,5.88
2022-08-14T15:24:52.003Z,4.95
2022-08-14T15:27:26.385Z,4.57
2022-08-14T15:29:53.538Z,4.63
2022-08-14T15:32:23.261Z,5.80
2022-08-14T15:34:51.894Z,5.13
2022-08-14T15:37:22.909Z,5.40
2022-08-14T15:39:50.653Z,4.93
2022-08-14T15:42:22.977Z,5.15
2022-08-14T15:44:57.831Z,6.68
2022-08-14T15:47:31.708Z,4.95
2022-08-14T15:50:01.570Z,5.88
2022-08-14T15:52:32.851Z,5.47
2022-08-14T15:55:15.305Z,6.15
2022-08-14T15:58:01.529Z,5.82
2022-08-14T16:00:51.948Z,5.53
2022-08-14T16:03:27.813Z,4.95
2022-08-14T16:06:19.789Z,4.90
2022-08-14T16:08:50.310Z,5.20
2022-08-14T16:11:25.769Z,6.97
2022-08-14T16:13:57.719Z,5.57
2022-08-14T16:16:48.089Z,4.63
2022-08-14T16:19:18.863Z,5.05
2022-08-14T16:24:35.794Z,4.50
2022-08-14T16:27:07.522Z,5.05
2022-08-14T16:29:37.977Z,5.00
2022-08-14T16:32:32.108Z,5.28
2022-08-14T16:34:55.743Z,5.00
2022-08-14T16:37:23.480Z,5.38
2022-08-14T16:39:59.396Z,5.07
2022-08-14T16:40:24.105Z,5.22
2022-08-14T16:42:38.864Z,4.78
2022-08-14T16:45:17.804Z,4.60
2022-08-14T16:47:44.651Z,4.75
2022-08-14T16:50:15.225Z,5.00
2022-08-14T16:53:01.956Z,5.13
2022-08-14T16:55:33.986Z,4.63
2022-08-14T16:58:21.169Z,5.72
2022-08-14T17:00:53.824Z,5.18
2022-08-14T17:03:20.554Z,5.07
2022-08-14T17:05:48.191Z,5.38
2022-08-14T17:08:32.888Z,5.05
2022-08-14T17:11:10.807Z,5.15
2022-08-14T17:13:59.169Z,5.25
2022-08-14T17:16:38.929Z,5.10
2022-08-14T17:19:09.692Z,4.77
2022-08-14T17:21:41.069Z,4.80
2022-08-14T17:24:57.289Z,5.83
2022-08-14T17:27:03.927Z,5.85
2022-08-14T17:29:54.554Z,8.82
2022-08-14T17:35:16.563Z,7.22
2022-08-14T17:37:46.139Z,8.75
2022-08-14T17:40:16.586Z,7.20
2022-08-14T17:42:53.435Z,6.20
2022-08-14T17:45:43.190Z,7.47
2022-08-14T17:49:14.373Z,7.32
2022-08-14T17:51:17.021Z,6.68
2022-08-14T17:54:01.262Z,6.45
2022-08-14T17:56:31.008Z,5.93
2022-08-14T17:59:06.890Z,7.85
2022-08-14T18:01:45.608Z,7.00
2022-08-14T18:04:24.901Z,7.60
2022-08-14T18:07:50.524Z,7.20
2022-08-14T18:09:59.087Z,7.70
2022-08-14T18:12:37.194Z,10.02
2022-08-14T18:15:14.746Z,7.60
2022-08-14T18:17:52.521Z,7.05
2022-08-14T18:21:25.504Z,6.35
2022-08-14T18:23:13.700Z,8.40
2022-08-14T18:25:54.501Z,6.22
2022-08-14T18:28:48.401Z,9.98
2022-08-14T18:31:21.031Z,8.75
2022-08-14T18:33:55.204Z,7.22
2022-08-14T18:36:48.475Z,6.45
2022-08-14T18:40:01.267Z,6.82
2022-08-14T18:42:32.964Z,7.28
2022-08-14T18:45:01.620Z,7.07
2022-08-14T18:48:03.386Z,7.63
2022-08-14T18:50:27.495Z,7.07
2022-08-14T18:53:09.002Z,8.02
2022-08-14T18:55:37.172Z,7.78
2022-08-14T18:58:27.892Z,6.80
2022-08-14T19:01:02.123Z,7.53
2022-08-14T19:03:34.283Z,9.55
2022-08-14T19:06:08.992Z,10.88
2022-08-14T19:08:45.420Z,9.20
2022-08-14T19:11:34.285Z,8.50
2022-08-14T19:16:36.776Z,11.18
2022-08-14T19:19:08.666Z,10.38
2022-08-14T19:21:55.105Z,13.65
2022-08-14T19:24:34.090Z,9.93
2022-08-14T19:27:23.733Z,10.20
2022-08-14T19:30:20.146Z,8.88
2022-08-14T19:32:50.769Z,8.68
2022-08-14T19:35:22.768Z,7.20
2022-08-14T19:37:56.193Z,9.15
2022-08-14T19:40:39.936Z,8.60
2022-08-14T19:43:09.281Z,10.25
2022-08-14T19:45:37.828Z,6.75
2022-08-14T19:48:12.435Z,6.90
2022-08-14T19:50:41.287Z,6.88
2022-08-14T19:53:17.393Z,6.55
2022-08-14T19:55:58.782Z,7.13
2022-08-14T19:58:55.071Z,7.25
2022-08-14T20:01:37.004Z,6.88
2022-08-14T20:04:46.327Z,6.97
2022-08-14T20:06:57.506Z,7.78
2022-08-14T20:11:07.733Z,7.20
2022-08-14T20:12:29.251Z,7.57
2022-08-14T20:15:08.800Z,7.28
2022-08-14T20:17:44.443Z,7.43
2022-08-14T20:20:30.698Z,8.98
2022-08-14T20:23:02.122Z,8.02
2022-08-14T20:25:56.677Z,9.55
2022-08-14T20:28:31.729Z,7.78
2022-08-14T20:31:17.785Z,10.27
2022-08-14T20:34:07.948Z,8.70
2022-08-14T20:36:46.032Z,9.13
2022-08-14T20:39:15.390Z,8.57
2022-08-14T20:41:51.033Z,10.55
2022-08-14T20:44:41.201Z,9.25
2022-08-14T20:47:15.043Z,9.15
2022-08-14T20:49:41.625Z,11.15
2022-08-14T20:52:18.908Z,9.60
2022-08-14T20:54:50.702Z,9.53
2022-08-14T20:57:18.845Z,10.23
2022-08-14T20:59:50.121Z,14.57
2022-08-14T21:02:34.476Z,10.85
2022-08-14T21:05:17.372Z,11.02
2022-08-14T21:07:50.953Z,10.07
2022-08-14T21:10:33.836Z,11.25
2022-08-14T21:14:08.889Z,13.35
2022-08-14T21:15:56.626Z,10.63
2022-08-14T21:18:25.055Z,10.02
2022-08-14T21:20:56.761Z,12.70
2022-08-14T21:23:23.346Z,10.02
2022-08-14T21:25:50.421Z,10.52
2022-08-14T21:28:30.142Z,8.63
2022-08-14T21:30:57.843Z,8.45
2022-08-14T21:33:25.031Z,10.68
2022-08-14T21:35:54.862Z,9.63
2022-08-14T21:38:33.490Z,9.35
2022-08-14T21:41:43.434Z,9.68
2022-08-14T21:44:18.346Z,9.48
2022-08-14T21:46:53.983Z,10.83
2022-08-14T21:49:34.138Z,9.15
2022-08-14T21:52:50.894Z,10.48
2022-08-14T21:55:08.714Z,7.97
2022-08-14T21:58:46.390Z,8.95
2022-08-14T22:00:36.562Z,10.15
2022-08-14T22:03:10.681Z,8.25
2022-08-14T22:05:41.797Z,9.55
2022-08-14T22:08:12.449Z,9.45
2022-08-14T22:10:42.486Z,9.55
2022-08-14T22:13:12.069Z,7.75
2022-08-14T22:15:43.915Z,11.48
2022-08-14T22:18:20.631Z,10.25
2022-08-14T22:20:53.743Z,8.05
2022-08-14T22:23:21.641Z,9.75
2022-08-14T22:25:51.078Z,10.45
2022-08-14T22:28:25.324Z,11.68
2022-08-14T22:30:55.032Z,11.15
2022-08-14T22:33:30.977Z,11.32
2022-08-14T22:35:59.319Z,12.02
2022-08-14T22:38:37.669Z,13.05
2022-08-14T22:41:28.037Z,9.23
2022-08-14T22:43:54.720Z,12.13
2022-08-14T22:46:21.738Z,9.88
2022-08-14T22:48:49.354Z,9.63
2022-08-14T22:51:18.888Z,9.02
2022-08-14T22:53:48.677Z,9.73
2022-08-14T22:56:21.150Z,11.60
2022-08-14T22:58:53.509Z,14.30
2022-08-14T23:01:56.920Z,10.05
2022-08-14T23:04:35.608Z,12.05
2022-08-14T23:07:22.085Z,8.73
2022-08-14T23:09:56.251Z,10.55
2022-08-14T23:12:28.396Z,9.35
2022-08-14T23:14:56.199Z,8.15
2022-08-14T23:17:22.762Z,11.32
2022-08-14T23:19:49.309Z,9.32
2022-08-14T23:22:24.272Z,8.45
2022-08-14T23:24:53.085Z,12.25
2022-08-14T23:27:32.055Z,8.82
2022-08-14T23:30:33.957Z,9.10
2022-08-14T23:33:03.084Z,10.00
2022-08-14T23:35:32.996Z,8.82
2022-08-14T23:38:05.478Z,9.32
2022-08-14T23:40:34.476Z,9.48
2022-08-14T23:43:09.572Z,10.05
2022-08-14T23:45:40.821Z,9.27
2022-08-14T23:48:12.407Z,11.27
2022-08-14T23:50:41.789Z,10.90
2022-08-14T23:53:47.299Z,10.73
2022-08-14T23:56:18.431Z,8.82
2022-08-14T23:58:49.285Z,11.45
